Kemal Ka — TCTM5 — position and weather

sailwx.info

Track history (hours):
 
Tides and Currents Weather Stations Pressure Air Temp Water Temp Dewpoint Dewpoint Depression Visibility Wind Speed Wind Dir Waves Ship Positions

Kemal Ka

Last reported at 2017-Oct-30 19:26 UTC. Time now 2017-Nov-22 05:36 UTC.
Position N 40°55' E 028°49'.
Warning: this ship's position is 22 days out of date.

Length 138 m; draft 7.5 m.

Type: Tanker. MMSI: 271002668.

Date/timePositionNaut miles runAvg speedWind from/ knotsBaromVisibWave heightAir tempDewpointWater temp
2017-Oct-30 19:26N 40°55' E 028°49'3 0.2
2017-Oct-30 00:49N 40°57' E 028°53'0 0.0
2017-Oct-29 15:20N 40°57' E 028°53'2 5.4
2017-Oct-29 14:54N 40°57' E 028°56'4 8.5
2017-Oct-29 14:29N 40°59' E 028°60'  
2017-Oct-27 04:30N 45°03' E 036°36'4 6.9
2017-Oct-27 03:53N 45°07' E 036°38'0 0.0
2017-Oct-25 11:56N 45°07' E 036°39'2 5.2
2017-Oct-25 11:30N 45°05' E 036°37'2 3.0
2017-Oct-25 10:59N 45°04' E 036°38'0 0.0
2017-Oct-23 18:08N 45°04' E 036°38'0 0.0
2017-Oct-23 08:20N 45°04' E 036°38'0 0.0
2017-Oct-22 23:08N 45°04' E 036°38'0 0.0
2017-Oct-22 22:59N 45°04' E 036°38'0 0.0
2017-Oct-22 15:20N 45°04' E 036°38'0 0.0
2017-Oct-22 14:11N 45°04' E 036°38'0 0.0
2017-Oct-22 13:59N 45°04' E 036°38'0 0.0
2017-Oct-22 13:29N 45°04' E 036°38'0 0.0
2017-Oct-22 12:53N 45°04' E 036°38'0 0.0
2017-Oct-22 12:11N 45°04' E 036°38'0 0.1
2017-Oct-22 11:59N 45°04' E 036°38'0 0.0
2017-Oct-22 11:29N 45°04' E 036°38'0 0.0
2017-Oct-22 10:53N 45°04' E 036°38'0 0.0
2017-Oct-22 10:29N 45°04' E 036°38'0 0.0
2017-Oct-22 09:53N 45°04' E 036°38'0 0.0
2017-Oct-22 09:26N 45°04' E 036°38'0 0.0
2017-Oct-22 08:59N 45°04' E 036°38'0 0.1
2017-Oct-22 06:56N 45°04' E 036°38'97 2.9
2017-Oct-20 22:02N 43°49' E 038°02'210.4
2017-Oct-20 21:53N 43°48' E 038°04'410.5
2017-Oct-20 21:30N 43°45' E 038°08'1310.5
2017-Oct-20 20:16N 43°36' E 038°22'310.7
2017-Oct-20 20:00N 43°35' E 038°25'610.8
2017-Oct-20 19:29N 43°31' E 038°31'  
Track history (hours):
 
Tides and Currents Weather Stations Pressure Air Temp Water Temp Dewpoint Dewpoint Depression Visibility Wind Speed Wind Dir Waves Ship Positions

Kemal Ka

Last reported at 2017-Oct-30 19:26 UTC. Time now 2017-Nov-22 05:36 UTC.
Position N 40°55' E 028°49'.
Warning: this ship's position is 22 days out of date.

Length 138 m; draft 7.5 m.

Type: Tanker. MMSI: 271002668.

Date/timePositionNaut miles runAvg speedWind from/ knotsBaromVisibWave heightAir tempDewpointWater temp
2017-Oct-30 19:26N 40°55' E 028°49'3 0.2
2017-Oct-30 00:49N 40°57' E 028°53'0 0.0
2017-Oct-29 15:20N 40°57' E 028°53'2 5.4
2017-Oct-29 14:54N 40°57' E 028°56'4 8.5
2017-Oct-29 14:29N 40°59' E 028°60'  
2017-Oct-27 04:30N 45°03' E 036°36'4 6.9
2017-Oct-27 03:53N 45°07' E 036°38'0 0.0
2017-Oct-25 11:56N 45°07' E 036°39'2 5.2
2017-Oct-25 11:30N 45°05' E 036°37'2 3.0
2017-Oct-25 10:59N 45°04' E 036°38'0 0.0
2017-Oct-23 18:08N 45°04' E 036°38'0 0.0
2017-Oct-23 08:20N 45°04' E 036°38'0 0.0
2017-Oct-22 23:08N 45°04' E 036°38'0 0.0
2017-Oct-22 22:59N 45°04' E 036°38'0 0.0
2017-Oct-22 15:20N 45°04' E 036°38'0 0.0
2017-Oct-22 14:11N 45°04' E 036°38'0 0.0
2017-Oct-22 13:59N 45°04' E 036°38'0 0.0
2017-Oct-22 13:29N 45°04' E 036°38'0 0.0
2017-Oct-22 12:53N 45°04' E 036°38'0 0.0
2017-Oct-22 12:11N 45°04' E 036°38'0 0.1
2017-Oct-22 11:59N 45°04' E 036°38'0 0.0
2017-Oct-22 11:29N 45°04' E 036°38'0 0.0
2017-Oct-22 10:53N 45°04' E 036°38'0 0.0
2017-Oct-22 10:29N 45°04' E 036°38'0 0.0
2017-Oct-22 09:53N 45°04' E 036°38'0 0.0
2017-Oct-22 09:26N 45°04' E 036°38'0 0.0
2017-Oct-22 08:59N 45°04' E 036°38'0 0.1
2017-Oct-22 06:56N 45°04' E 036°38'97 2.9
2017-Oct-20 22:02N 43°49' E 038°02'210.4
2017-Oct-20 21:53N 43°48' E 038°04'410.5
2017-Oct-20 21:30N 43°45' E 038°08'1310.5
2017-Oct-20 20:16N 43°36' E 038°22'310.7
2017-Oct-20 20:00N 43°35' E 038°25'610.8
2017-Oct-20 19:29N 43°31' E 038°31'  

Dump ship's entire track history